sensor_id;sensor_type;location;lat;lon;timestamp;pressure;altitude;pressure_sealevel;temperature;humidity
59877;BME280;45749;51.140;17.184;2023-03-01T00:00:53;101538.41;;;-2.17;81.25
59877;BME280;45749;51.140;17.184;2023-03-01T00:03:19;101543.53;;;-2.22;81.11
59877;BME280;45749;51.140;17.184;2023-03-01T00:05:45;101543.56;;;-2.23;81.24
59877;BME280;45749;51.140;17.184;2023-03-01T00:08:11;101544.41;;;-2.24;81.13
59877;BME280;45749;51.140;17.184;2023-03-01T00:10:36;101546.16;;;-2.26;81.42
59877;BME280;45749;51.140;17.184;2023-03-01T00:13:02;101539.25;;;-2.32;81.49
59877;BME280;45749;51.140;17.184;2023-03-01T00:15:30;101537.53;;;-2.33;81.32
59877;BME280;45749;51.140;17.184;2023-03-01T00:17:56;101543.56;;;-2.32;81.68
59877;BME280;45749;51.140;17.184;2023-03-01T00:20:22;101548.72;;;-2.36;81.72
59877;BME280;45749;51.140;17.184;2023-03-01T00:22:47;101540.97;;;-2.34;81.46
59877;BME280;45749;51.140;17.184;2023-03-01T00:25:13;101546.13;;;-2.34;81.60
59877;BME280;45749;51.140;17.184;2023-03-01T00:27:38;101541.84;;;-2.37;81.65
59877;BME280;45749;51.140;17.184;2023-03-01T00:30:04;101534.09;;;-2.43;81.64
59877;BME280;45749;51.140;17.184;2023-03-01T00:32:30;101525.47;;;-2.39;81.33
59877;BME280;45749;51.140;17.184;2023-03-01T00:34:55;101528.03;;;-2.39;81.60
59877;BME280;45749;51.140;17.184;2023-03-01T00:37:22;101530.63;;;-2.42;81.58
59877;BME280;45749;51.140;17.184;2023-03-01T00:39:47;101524.63;;;-2.47;81.81
59877;BME280;45749;51.140;17.184;2023-03-01T00:42:13;101518.56;;;-2.47;81.59
59877;BME280;45749;51.140;17.184;2023-03-01T00:44:38;101517.69;;;-2.48;81.43
59877;BME280;45749;51.140;17.184;2023-03-01T00:47:04;101506.53;;;-2.50;81.47
59877;BME280;45749;51.140;17.184;2023-03-01T00:49:29;101503.91;;;-2.51;81.40
59877;BME280;45749;51.140;17.184;2023-03-01T00:51:55;101501.34;;;-2.50;81.60
59877;BME280;45749;51.140;17.184;2023-03-01T00:54:20;101499.59;;;-2.54;81.56
59877;BME280;45749;51.140;17.184;2023-03-01T00:56:45;101505.63;;;-2.58;81.80
59877;BME280;45749;51.140;17.184;2023-03-01T00:59:11;101504.78;;;-2.57;81.51
59877;BME280;45749;51.140;17.184;2023-03-01T01:01:36;101503.91;;;-2.57;81.44
59877;BME280;45749;51.140;17.184;2023-03-01T01:04:06;101507.38;;;-2.58;81.74
59877;BME280;45749;51.140;17.184;2023-03-01T01:06:36;101506.50;;;-2.62;81.77
59877;BME280;45749;51.140;17.184;2023-03-01T01:09:04;101517.72;;;-2.69;81.88
59877;BME280;45749;51.140;17.184;2023-03-01T01:11:30;101510.78;;;-2.70;81.82
59877;BME280;45749;51.140;17.184;2023-03-01T01:13:56;101504.78;;;-2.66;81.62
59877;BME280;45749;51.140;17.184;2023-03-01T01:16:24;101489.28;;;-2.65;81.50
59877;BME280;45749;51.140;17.184;2023-03-01T01:18:50;101497.03;;;-2.69;81.35
59877;BME280;45749;51.140;17.184;2023-03-01T01:21:17;101484.94;;;-2.73;81.59
59877;BME280;45749;51.140;17.184;2023-03-01T01:23:44;101485.84;;;-2.73;81.57
59877;BME280;45749;51.140;17.184;2023-03-01T01:26:16;101487.53;;;-2.78;81.69
59877;BME280;45749;51.140;17.184;2023-03-01T01:28:42;101490.13;;;-2.81;81.55
59877;BME280;45749;51.140;17.184;2023-03-01T01:31:07;101489.25;;;-2.85;81.69
59877;BME280;45749;51.140;17.184;2023-03-01T01:33:33;101488.41;;;-2.82;81.48
59877;BME280;45749;51.140;17.184;2023-03-01T01:35:59;101484.97;;;-2.79;81.53
59877;BME280;45749;51.140;17.184;2023-03-01T01:38:25;101484.97;;;-2.81;81.83
59877;BME280;45749;51.140;17.184;2023-03-01T01:40:51;101486.69;;;-2.89;81.67
59877;BME280;45749;51.140;17.184;2023-03-01T01:43:33;101487.53;;;-2.92;81.94
59877;BME280;45749;51.140;17.184;2023-03-01T01:46:22;101483.22;;;-2.94;82.03
59877;BME280;45749;51.140;17.184;2023-03-01T01:48:58;101471.16;;;-2.97;81.77
59877;BME280;45749;51.140;17.184;2023-03-01T01:51:28;101466.84;;;-2.98;81.97
59877;BME280;45749;51.140;17.184;2023-03-01T01:53:59;101465.97;;;-3.00;82.25
59877;BME280;45749;51.140;17.184;2023-03-01T01:56:27;101467.72;;;-3.02;82.53
59877;BME280;45749;51.140;17.184;2023-03-01T01:58:54;101459.97;;;-3.00;82.49
59877;BME280;45749;51.140;17.184;2023-03-01T02:01:20;101460.81;;;-3.00;82.20
59877;BME280;45749;51.140;17.184;2023-03-01T02:03:46;101460.81;;;-3.03;82.53
59877;BME280;45749;51.140;17.184;2023-03-01T02:06:33;101463.41;;;-3.03;82.62
59877;BME280;45749;51.140;17.184;2023-03-01T02:09:02;101469.44;;;-3.04;83.05
59877;BME280;45749;51.140;17.184;2023-03-01T02:11:31;101464.28;;;-3.02;82.94
59877;BME280;45749;51.140;17.184;2023-03-01T02:13:56;101458.25;;;-3.04;82.58
59877;BME280;45749;51.140;17.184;2023-03-01T02:16:22;101458.25;;;-3.08;82.60
59877;BME280;45749;51.140;17.184;2023-03-01T02:18:49;101459.09;;;-3.10;82.59
59877;BME280;45749;51.140;17.184;2023-03-01T02:27:05;101460.81;;;-3.15;82.96
59877;BME280;45749;51.140;17.184;2023-03-01T02:29:30;101460.81;;;-3.15;83.06
59877;BME280;45749;51.140;17.184;2023-03-01T02:31:58;101464.22;;;-3.16;82.94
59877;BME280;45749;51.140;17.184;2023-03-01T02:34:25;101460.81;;;-3.15;82.78
59877;BME280;45749;51.140;17.184;2023-03-01T02:37:05;101461.66;;;-3.13;82.83
59877;BME280;45749;51.140;17.184;2023-03-01T02:39:41;101466.81;;;-3.16;82.99
59877;BME280;45749;51.140;17.184;2023-03-01T02:42:17;101466.81;;;-3.24;82.84
59877;BME280;45749;51.140;17.184;2023-03-01T02:44:45;101466.84;;;-3.22;83.34
59877;BME280;45749;51.140;17.184;2023-03-01T02:47:10;101465.97;;;-3.24;82.79
59877;BME280;45749;51.140;17.184;2023-03-01T02:49:37;101464.25;;;-3.25;82.96
59877;BME280;45749;51.140;17.184;2023-03-01T02:52:27;101470.22;;;-3.30;83.12
59877;BME280;45749;51.140;17.184;2023-03-01T02:55:09;101473.69;;;-3.32;83.07
59877;BME280;45749;51.140;17.184;2023-03-01T02:57:38;101476.25;;;-3.35;83.06
59877;BME280;45749;51.140;17.184;2023-03-01T03:00:12;101476.25;;;-3.37;83.01
59877;BME280;45749;51.140;17.184;2023-03-01T03:02:45;101469.34;;;-3.39;83.13
59877;BME280;45749;51.140;17.184;2023-03-01T03:05:20;101472.81;;;-3.37;83.08
59877;BME280;45749;51.140;17.184;2023-03-01T03:07:47;101465.94;;;-3.34;83.01
59877;BME280;45749;51.140;17.184;2023-03-01T03:10:23;101462.50;;;-3.30;82.57
59877;BME280;45749;51.140;17.184;2023-03-01T03:12:54;101462.47;;;-3.33;82.48
59877;BME280;45749;51.140;17.184;2023-03-01T03:15:20;101460.75;;;-3.37;82.37
59877;BME280;45749;51.140;17.184;2023-03-01T03:17:46;101464.19;;;-3.39;82.71
59877;BME280;45749;51.140;17.184;2023-03-01T03:20:14;101465.91;;;-3.44;82.80
59877;BME280;45749;51.140;17.184;2023-03-01T03:22:45;101461.59;;;-3.48;82.85
59877;BME280;45749;51.140;17.184;2023-03-01T03:25:11;101460.72;;;-3.52;82.88
59877;BME280;45749;51.140;17.184;2023-03-01T03:27:38;101452.09;;;-3.54;82.92
59877;BME280;45749;51.140;17.184;2023-03-01T03:30:06;101457.22;;;-3.59;83.07
59877;BME280;45749;51.140;17.184;2023-03-01T03:32:36;101447.78;;;-3.61;83.06
59877;BME280;45749;51.140;17.184;2023-03-01T03:35:03;101440.88;;;-3.65;83.20
59877;BME280;45749;51.140;17.184;2023-03-01T03:37:37;101451.19;;;-3.67;82.97
59877;BME280;45749;51.140;17.184;2023-03-01T03:40:21;101445.16;;;-3.70;83.28
59877;BME280;45749;51.140;17.184;2023-03-01T03:42:46;101450.34;;;-3.67;83.44
59877;BME280;45749;51.140;17.184;2023-03-01T03:45:13;101450.34;;;-3.67;83.56
59877;BME280;45749;51.140;17.184;2023-03-01T03:47:38;101437.44;;;-3.66;83.43
59877;BME280;45749;51.140;17.184;2023-03-01T03:50:04;101431.41;;;-3.66;83.37
59877;BME280;45749;51.140;17.184;2023-03-01T03:52:29;101439.16;;;-3.68;83.52
59877;BME280;45749;51.140;17.184;2023-03-01T03:54:55;101431.41;;;-3.72;83.57
59877;BME280;45749;51.140;17.184;2023-03-01T03:57:20;101427.09;;;-3.75;83.52
59877;BME280;45749;51.140;17.184;2023-03-01T03:59:46;101422.81;;;-3.73;83.54
59877;BME280;45749;51.140;17.184;2023-03-01T04:02:11;101422.81;;;-3.71;83.19
59877;BME280;45749;51.140;17.184;2023-03-01T04:04:37;101422.78;;;-3.76;83.44
59877;BME280;45749;51.140;17.184;2023-03-01T04:07:02;101419.34;;;-3.78;83.42
59877;BME280;45749;51.140;17.184;2023-03-01T04:09:27;101427.94;;;-3.78;83.19
59877;BME280;45749;51.140;17.184;2023-03-01T04:11:55;101418.47;;;-3.79;83.24
59877;BME280;45749;51.140;17.184;2023-03-01T04:14:20;101424.50;;;-3.81;83.40
59877;BME280;45749;51.140;17.184;2023-03-01T04:16:46;101429.63;;;-3.83;83.37
59877;BME280;45749;51.140;17.184;2023-03-01T04:19:12;101421.06;;;-3.85;83.53
59877;BME280;45749;51.140;17.184;2023-03-01T04:21:37;101419.31;;;-3.86;83.43
59877;BME280;45749;51.140;17.184;2023-03-01T04:24:03;101428.75;;;-3.86;84.09
59877;BME280;45749;51.140;17.184;2023-03-01T04:26:29;101425.34;;;-3.87;83.69
59877;BME280;45749;51.140;17.184;2023-03-01T04:28:54;101422.75;;;-3.87;83.99
59877;BME280;45749;51.140;17.184;2023-03-01T04:31:20;101425.34;;;-3.87;84.12
59877;BME280;45749;51.140;17.184;2023-03-01T04:33:51;101419.31;;;-3.86;84.19
59877;BME280;45749;51.140;17.184;2023-03-01T04:36:17;101422.75;;;-3.84;84.20
59877;BME280;45749;51.140;17.184;2023-03-01T04:38:44;101415.00;;;-3.85;84.19
59877;BME280;45749;51.140;17.184;2023-03-01T04:41:14;101415.00;;;-3.85;84.33
59877;BME280;45749;51.140;17.184;2023-03-01T04:43:40;101418.44;;;-3.86;84.33
59877;BME280;45749;51.140;17.184;2023-03-01T04:46:08;101419.31;;;-3.86;84.13
59877;BME280;45749;51.140;17.184;2023-03-01T04:48:39;101417.59;;;-3.87;83.86
59877;BME280;45749;51.140;17.184;2023-03-01T04:51:05;101428.75;;;-3.86;83.68
59877;BME280;45749;51.140;17.184;2023-03-01T04:53:32;101421.88;;;-3.86;83.74
59877;BME280;45749;51.140;17.184;2023-03-01T04:55:58;101425.31;;;-3.88;83.75
59877;BME280;45749;51.140;17.184;2023-03-01T04:58:26;101422.72;;;-3.93;83.91
59877;BME280;45749;51.140;17.184;2023-03-01T05:00:52;101438.19;;;-3.96;83.98
59877;BME280;45749;51.140;17.184;2023-03-01T05:03:18;101432.16;;;-3.98;83.71
59877;BME280;45749;51.140;17.184;2023-03-01T05:05:46;101424.41;;;-3.99;83.53
59877;BME280;45749;51.140;17.184;2023-03-01T05:08:12;101425.31;;;-3.94;83.38
59877;BME280;45749;51.140;17.184;2023-03-01T05:10:44;101427.00;;;-3.95;83.74
59877;BME280;45749;51.140;17.184;2023-03-01T05:13:11;101427.00;;;-3.98;83.58
59877;BME280;45749;51.140;17.184;2023-03-01T05:15:39;101429.56;;;-3.99;83.67
59877;BME280;45749;51.140;17.184;2023-03-01T05:18:05;101428.69;;;-4.05;83.66
59877;BME280;45749;51.140;17.184;2023-03-01T05:20:36;101430.38;;;-4.08;83.69
59877;BME280;45749;51.140;17.184;2023-03-01T05:23:03;101438.09;;;-4.14;83.67
59877;BME280;45749;51.140;17.184;2023-03-01T05:25:31;101442.38;;;-4.15;83.64
59877;BME280;45749;51.140;17.184;2023-03-01T05:27:59;101428.63;;;-4.15;83.62
59877;BME280;45749;51.140;17.184;2023-03-01T05:30:24;101432.06;;;-4.16;83.59
59877;BME280;45749;51.140;17.184;2023-03-01T05:32:50;101426.03;;;-4.18;83.53
59877;BME280;45749;51.140;17.184;2023-03-01T05:35:21;101428.59;;;-4.23;83.78
59877;BME280;45749;51.140;17.184;2023-03-01T05:37:48;101431.16;;;-4.25;83.70
59877;BME280;45749;51.140;17.184;2023-03-01T05:40:17;101429.44;;;-4.26;83.80
59877;BME280;45749;51.140;17.184;2023-03-01T05:42:48;101432.00;;;-4.27;83.72
59877;BME280;45749;51.140;17.184;2023-03-01T05:45:15;101436.31;;;-4.28;83.86
59877;BME280;45749;51.140;17.184;2023-03-01T05:47:43;101437.16;;;-4.27;83.81
59877;BME280;45749;51.140;17.184;2023-03-01T05:52:36;101441.47;;;-4.28;83.77
59877;BME280;45749;51.140;17.184;2023-03-01T05:55:01;101438.00;;;-4.30;83.80
59877;BME280;45749;51.140;17.184;2023-03-01T05:57:28;101444.88;;;-4.30;83.77
59877;BME280;45749;51.140;17.184;2023-03-01T05:59:53;101443.13;;;-4.31;83.86
59877;BME280;45749;51.140;17.184;2023-03-01T06:02:19;101453.44;;;-4.33;84.16
59877;BME280;45749;51.140;17.184;2023-03-01T06:04:45;101449.13;;;-4.37;84.03
59877;BME280;45749;51.140;17.184;2023-03-01T06:07:10;101447.41;;;-4.35;84.25
59877;BME280;45749;51.140;17.184;2023-03-01T06:09:36;101447.41;;;-4.35;84.09
59877;BME280;45749;51.140;17.184;2023-03-01T06:12:01;101446.56;;;-4.34;84.21
59877;BME280;45749;51.140;17.184;2023-03-01T06:14:27;101444.00;;;-4.34;84.44
59877;BME280;45749;51.140;17.184;2023-03-01T06:16:52;101441.41;;;-4.35;84.53
59877;BME280;45749;51.140;17.184;2023-03-01T06:19:17;101437.13;;;-4.32;84.47
59877;BME280;45749;51.140;17.184;2023-03-01T06:21:43;101436.28;;;-4.29;84.54
59877;BME280;45749;51.140;17.184;2023-03-01T06:24:08;101432.88;;;-4.27;84.63
59877;BME280;45749;51.140;17.184;2023-03-01T06:26:34;101419.16;;;-4.19;84.64
59877;BME280;45749;51.140;17.184;2023-03-01T06:28:59;101427.75;;;-4.16;84.55
59877;BME280;45749;51.140;17.184;2023-03-01T06:31:25;101419.22;;;-4.10;84.97
59877;BME280;45749;51.140;17.184;2023-03-01T06:33:50;101414.09;;;-4.04;85.16
59877;BME280;45749;51.140;17.184;2023-03-01T06:36:15;101411.53;;;-4.01;85.17
59877;BME280;45749;51.140;17.184;2023-03-01T06:38:44;101405.50;;;-4.00;85.23
59877;BME280;45749;51.140;17.184;2023-03-01T06:41:09;101406.38;;;-3.96;85.42
59877;BME280;45749;51.140;17.184;2023-03-01T06:43:35;101408.97;;;-3.92;85.79
59877;BME280;45749;51.140;17.184;2023-03-01T06:46:04;101412.41;;;-3.90;85.73
59877;BME280;45749;51.140;17.184;2023-03-01T06:48:29;101410.72;;;-3.88;85.83
59877;BME280;45749;51.140;17.184;2023-03-01T06:50:58;101410.72;;;-3.88;85.95
59877;BME280;45749;51.140;17.184;2023-03-01T06:53:23;101410.75;;;-3.85;86.34
59877;BME280;45749;51.140;17.184;2023-03-01T06:55:54;101421.91;;;-3.80;86.33
59877;BME280;45749;51.140;17.184;2023-03-01T06:58:20;101419.34;;;-3.77;86.37
59877;BME280;45749;51.140;17.184;2023-03-01T07:00:45;101419.34;;;-3.72;86.66
59877;BME280;45749;51.140;17.184;2023-03-01T07:03:10;101426.25;;;-3.66;86.89
59877;BME280;45749;51.140;17.184;2023-03-01T07:05:36;101418.56;;;-3.62;86.83
59877;BME280;45749;51.140;17.184;2023-03-01T07:08:01;101417.69;;;-3.58;87.08
59877;BME280;45749;51.140;17.184;2023-03-01T07:10:27;101423.72;;;-3.53;87.28
59877;BME280;45749;51.140;17.184;2023-03-01T07:12:58;101428.06;;;-3.45;86.90
59877;BME280;45749;51.140;17.184;2023-03-01T07:15:24;101423.75;;;-3.42;87.21
59877;BME280;45749;51.140;17.184;2023-03-01T07:17:50;101423.78;;;-3.39;87.31
59877;BME280;45749;51.140;17.184;2023-03-01T07:20:17;101419.47;;;-3.35;87.60
59877;BME280;45749;51.140;17.184;2023-03-01T07:22:43;101416.91;;;-3.31;88.01
59877;BME280;45749;51.140;17.184;2023-03-01T07:25:09;101419.50;;;-3.24;88.17
59877;BME280;45749;51.140;17.184;2023-03-01T07:27:35;101419.50;;;-3.18;88.56
59877;BME280;45749;51.140;17.184;2023-03-01T07:30:02;101416.03;;;-3.13;88.67
59877;BME280;45749;51.140;17.184;2023-03-01T07:32:27;101415.19;;;-3.07;88.66
59877;BME280;45749;51.140;17.184;2023-03-01T07:34:53;101429.84;;;-3.01;88.45
59877;BME280;45749;51.140;17.184;2023-03-01T07:37:18;101418.66;;;-2.96;88.44
59877;BME280;45749;51.140;17.184;2023-03-01T07:39:44;101414.34;;;-2.89;88.43
59877;BME280;45749;51.140;17.184;2023-03-01T07:42:09;101423.81;;;-2.84;88.79
59877;BME280;45749;51.140;17.184;2023-03-01T07:44:34;101419.50;;;-2.81;88.73
59877;BME280;45749;51.140;17.184;2023-03-01T07:47:00;101416.06;;;-2.77;88.54
59877;BME280;45749;51.140;17.184;2023-03-01T07:49:26;101415.19;;;-2.73;88.79
59877;BME280;45749;51.140;17.184;2023-03-01T07:51:54;101412.63;;;-2.66;88.57
59877;BME280;45749;51.140;17.184;2023-03-01T07:54:19;101415.19;;;-2.58;88.71
59877;BME280;45749;51.140;17.184;2023-03-01T07:56:45;101407.44;;;-2.55;88.40
59877;BME280;45749;51.140;17.184;2023-03-01T07:59:10;101403.13;;;-2.47;88.68
59877;BME280;45749;51.140;17.184;2023-03-01T08:01:35;101404.81;;;-2.41;88.45
59877;BME280;45749;51.140;17.184;2023-03-01T08:04:01;101408.25;;;-2.36;88.21
59877;BME280;45749;51.140;17.184;2023-03-01T08:06:27;101398.78;;;-2.29;88.61
59877;BME280;45749;51.140;17.184;2023-03-01T08:08:52;101390.13;;;-2.25;88.59
59877;BME280;45749;51.140;17.184;2023-03-01T08:11:20;101400.47;;;-2.16;88.23
59877;BME280;45749;51.140;17.184;2023-03-01T08:13:48;101396.09;;;-2.08;88.12
59877;BME280;45749;51.140;17.184;2023-03-01T08:16:14;101398.69;;;-2.00;87.81
59877;BME280;45749;51.140;17.184;2023-03-01T08:18:41;101394.34;;;-1.95;87.38
59877;BME280;45749;51.140;17.184;2023-03-01T08:21:09;101398.59;;;-1.83;87.55
59877;BME280;45749;51.140;17.184;2023-03-01T08:23:35;101398.56;;;-1.79;87.99
59877;BME280;45749;51.140;17.184;2023-03-01T08:26:06;101395.97;;;-1.73;88.47
59877;BME280;45749;51.140;17.184;2023-03-01T08:28:32;101388.16;;;-1.68;88.54
59877;BME280;45749;51.140;17.184;2023-03-01T08:30:57;101384.69;;;-1.62;89.03
59877;BME280;45749;51.140;17.184;2023-03-01T08:33:23;101384.63;;;-1.55;89.10
59877;BME280;45749;51.140;17.184;2023-03-01T08:35:48;101395.84;;;-1.50;88.92
59877;BME280;45749;51.140;17.184;2023-03-01T08:38:14;101388.91;;;-1.46;88.53
59877;BME280;45749;51.140;17.184;2023-03-01T08:40:39;101395.75;;;-1.39;88.34
59877;BME280;45749;51.140;17.184;2023-03-01T08:43:04;101405.22;;;-1.32;88.65
59877;BME280;45749;51.140;17.184;2023-03-01T08:45:30;101407.75;;;-1.26;88.88
59877;BME280;45749;51.140;17.184;2023-03-01T08:47:55;101414.59;;;-1.19;88.50
59877;BME280;45749;51.140;17.184;2023-03-01T08:50:21;101413.72;;;-1.13;88.40
59877;BME280;45749;51.140;17.184;2023-03-01T08:52:47;101413.66;;;-1.04;88.91
59877;BME280;45749;51.140;17.184;2023-03-01T08:55:13;101407.56;;;-0.95;87.75
59877;BME280;45749;51.140;17.184;2023-03-01T08:57:40;101399.72;;;-0.87;87.15
59877;BME280;45749;51.140;17.184;2023-03-01T09:00:06;101395.31;;;-0.79;87.69
59877;BME280;45749;51.140;17.184;2023-03-01T09:02:33;101394.31;;;-0.66;86.88
59877;BME280;45749;51.140;17.184;2023-03-01T09:04:59;101389.94;;;-0.59;86.51
59877;BME280;45749;51.140;17.184;2023-03-01T09:07:26;101386.44;;;-0.52;85.84
59877;BME280;45749;51.140;17.184;2023-03-01T09:09:53;101395.88;;;-0.47;85.11
59877;BME280;45749;51.140;17.184;2023-03-01T09:12:20;101386.28;;;-0.38;84.78
59877;BME280;45749;51.140;17.184;2023-03-01T09:14:45;101386.16;;;-0.28;84.49
59877;BME280;45749;51.140;17.184;2023-03-01T09:17:11;101379.06;;;-0.13;84.90
59877;BME280;45749;51.140;17.184;2023-03-01T09:19:36;101377.22;;;-0.04;84.18
59877;BME280;45749;51.140;17.184;2023-03-01T09:22:03;101373.75;;;-0.01;82.57
59877;BME280;45749;51.140;17.184;2023-03-01T09:24:29;101380.63;;;0.02;82.18
59877;BME280;45749;51.140;17.184;2023-03-01T09:26:55;101366.78;;;0.03;81.80
59877;BME280;45749;51.140;17.184;2023-03-01T09:29:21;101374.41;;;0.15;83.09
59877;BME280;45749;51.140;17.184;2023-03-01T09:31:47;101378.69;;;0.20;81.70
59877;BME280;45749;51.140;17.184;2023-03-01T09:34:12;101380.28;;;0.31;82.34
59877;BME280;45749;51.140;17.184;2023-03-01T09:36:41;101373.19;;;0.42;83.74
59877;BME280;45749;51.140;17.184;2023-03-01T09:39:07;101369.44;;;0.61;83.87
59877;BME280;45749;51.140;17.184;2023-03-01T09:41:56;101366.34;;;0.93;84.28
59877;BME280;45749;51.140;17.184;2023-03-01T09:44:53;101358.13;;;1.20;83.36
59877;BME280;45749;51.140;17.184;2023-03-01T09:47:34;101364.81;;;1.33;83.07
59877;BME280;45749;51.140;17.184;2023-03-01T09:52:29;101367.16;;;1.47;80.73
59877;BME280;45749;51.140;17.184;2023-03-01T09:54:58;101373.16;;;1.50;80.45
59877;BME280;45749;51.140;17.184;2023-03-01T09:57:36;101367.84;;;1.56;80.86
59877;BME280;45749;51.140;17.184;2023-03-01T10:00:24;101376.50;;;1.58;80.09
59877;BME280;45749;51.140;17.184;2023-03-01T10:09:02;101378.59;;;1.83;78.85
59877;BME280;45749;51.140;17.184;2023-03-01T10:11:37;101366.50;;;1.82;78.76
59877;BME280;45749;51.140;17.184;2023-03-01T10:14:30;101377.53;;;1.93;78.29
59877;BME280;45749;51.140;17.184;2023-03-01T10:19:32;101364.22;;;2.08;78.68
59877;BME280;45749;51.140;17.184;2023-03-01T10:22:21;101363.16;;;2.17;77.97
59877;BME280;45749;51.140;17.184;2023-03-01T10:24:49;101356.09;;;2.24;77.45
59877;BME280;45749;51.140;17.184;2023-03-01T10:27:36;101356.75;;;2.32;77.32
59877;BME280;45749;51.140;17.184;2023-03-01T10:32:47;101345.41;;;2.72;79.07
59877;BME280;45749;51.140;17.184;2023-03-01T10:35:25;101338.75;;;2.96;76.24
59877;BME280;45749;51.140;17.184;2023-03-01T10:38:12;101344.66;;;3.02;74.59
59877;BME280;45749;51.140;17.184;2023-03-01T10:43:29;101342.72;;;3.11;72.89
59877;BME280;45749;51.140;17.184;2023-03-01T10:45:57;101346.88;;;3.18;73.80
59877;BME280;45749;51.140;17.184;2023-03-01T10:48:26;101334.53;;;3.24;72.73
59877;BME280;45749;51.140;17.184;2023-03-01T10:54:13;101337.94;;;3.28;72.43
59877;BME280;45749;51.140;17.184;2023-03-01T10:56:16;101333.53;;;3.30;71.23
59877;BME280;45749;51.140;17.184;2023-03-01T10:58:59;101324.41;;;3.46;73.48
59877;BME280;45749;51.140;17.184;2023-03-01T11:01:28;101321.31;;;3.63;73.99
59877;BME280;45749;51.140;17.184;2023-03-01T11:06:35;101319.66;;;3.90;72.72
59877;BME280;45749;51.140;17.184;2023-03-01T11:09:16;101314.09;;;4.03;74.38
59877;BME280;45749;51.140;17.184;2023-03-01T11:11:44;101302.41;;;4.14;73.44
59877;BME280;45749;51.140;17.184;2023-03-01T11:14:16;101291.00;;;4.18;73.37
59877;BME280;45749;51.140;17.184;2023-03-01T11:16:45;101301.13;;;4.28;74.34
59877;BME280;45749;51.140;17.184;2023-03-01T11:21:58;101305.56;;;4.26;71.84
59877;BME280;45749;51.140;17.184;2023-03-01T11:24:39;101304.00;;;4.20;72.13
59877;BME280;45749;51.140;17.184;2023-03-01T11:29:41;101298.41;;;4.31;72.74
59877;BME280;45749;51.140;17.184;2023-03-01T11:32:10;101293.81;;;4.39;73.62
59877;BME280;45749;51.140;17.184;2023-03-01T11:34:45;101292.28;;;4.60;72.29
59877;BME280;45749;51.140;17.184;2023-03-01T11:37:32;101293.75;;;4.68;71.75
59877;BME280;45749;51.140;17.184;2023-03-01T11:40:24;101291.06;;;4.70;71.46
59877;BME280;45749;51.140;17.184;2023-03-01T11:43:00;101301.19;;;4.81;71.64
59877;BME280;45749;51.140;17.184;2023-03-01T11:45:36;101302.59;;;4.91;70.45
59877;BME280;45749;51.140;17.184;2023-03-01T11:51:23;101298.34;;;5.13;71.72
59877;BME280;45749;51.140;17.184;2023-03-01T11:57:00;101290.97;;;5.25;68.39
59877;BME280;45749;51.140;17.184;2023-03-01T11:59:49;101284.88;;;5.24;68.87
59877;BME280;45749;51.140;17.184;2023-03-01T12:13:22;101262.19;;;5.48;67.41
59877;BME280;45749;51.140;17.184;2023-03-01T12:35:10;101245.53;;;5.98;64.74
59877;BME280;45749;51.140;17.184;2023-03-01T12:46:19;101236.91;;;6.38;64.56
59877;BME280;45749;51.140;17.184;2023-03-01T12:49:10;101227.00;;;6.46;63.58
59877;BME280;45749;51.140;17.184;2023-03-01T12:51:39;101221.50;;;6.52;64.06
59877;BME280;45749;51.140;17.184;2023-03-01T12:54:15;101216.84;;;6.59;64.56
59877;BME280;45749;51.140;17.184;2023-03-01T12:56:42;101208.41;;;6.73;63.43
59877;BME280;45749;51.140;17.184;2023-03-01T13:04:58;101204.19;;;6.89;62.41
59877;BME280;45749;51.140;17.184;2023-03-01T13:07:34;101207.22;;;6.80;62.52
59877;BME280;45749;51.140;17.184;2023-03-01T13:10:11;101203.81;;;6.78;63.00
59877;BME280;45749;51.140;17.184;2023-03-01T13:18:33;101198.22;;;6.86;61.91
59877;BME280;45749;51.140;17.184;2023-03-01T13:20:34;101197.66;;;6.79;61.93
59877;BME280;45749;51.140;17.184;2023-03-01T13:30:58;101190.13;;;6.71;62.37
59877;BME280;45749;51.140;17.184;2023-03-01T13:35:52;101191.72;;;6.74;62.20
59877;BME280;45749;51.140;17.184;2023-03-01T13:38:47;101192.41;;;6.79;61.75
59877;BME280;45749;51.140;17.184;2023-03-01T13:41:15;101190.75;;;6.76;61.25
59877;BME280;45749;51.140;17.184;2023-03-01T13:43:42;101183.00;;;6.73;61.75
59877;BME280;45749;51.140;17.184;2023-03-01T13:46:18;101176.00;;;6.74;61.49
59877;BME280;45749;51.140;17.184;2023-03-01T13:48:48;101178.56;;;6.75;61.18
59877;BME280;45749;51.140;17.184;2023-03-01T13:51:15;101175.22;;;6.72;60.58
59877;BME280;45749;51.140;17.184;2023-03-01T13:53:44;101174.16;;;6.76;61.17
59877;BME280;45749;51.140;17.184;2023-03-01T13:56:26;101176.66;;;6.79;61.31
59877;BME280;45749;51.140;17.184;2023-03-01T13:59:15;101158.78;;;6.87;61.03
59877;BME280;45749;51.140;17.184;2023-03-01T14:01:42;101157.81;;;6.90;61.07
59877;BME280;45749;51.140;17.184;2023-03-01T14:04:31;101159.38;;;6.94;60.11
59877;BME280;45749;51.140;17.184;2023-03-01T14:07:18;101150.66;;;6.93;60.08
59877;BME280;45749;51.140;17.184;2023-03-01T14:09:47;101142.78;;;6.93;59.78
59877;BME280;45749;51.140;17.184;2023-03-01T14:20:14;101141.16;;;6.91;59.44
59877;BME280;45749;51.140;17.184;2023-03-01T14:22:43;101134.19;;;6.90;59.44
59877;BME280;45749;51.140;17.184;2023-03-01T14:25:31;101135.06;;;6.90;58.78
59877;BME280;45749;51.140;17.184;2023-03-01T14:28:37;101125.50;;;6.89;58.89
59877;BME280;45749;51.140;17.184;2023-03-01T14:31:31;101122.00;;;6.89;58.86
59877;BME280;45749;51.140;17.184;2023-03-01T14:33:57;101115.00;;;6.89;59.11
59877;BME280;45749;51.140;17.184;2023-03-01T14:36:28;101119.38;;;6.89;58.42
59877;BME280;45749;51.140;17.184;2023-03-01T14:38:54;101116.94;;;6.84;58.12
59877;BME280;45749;51.140;17.184;2023-03-01T14:41:20;101121.34;;;6.84;58.02
59877;BME280;45749;51.140;17.184;2023-03-01T14:43:57;101118.88;;;6.80;58.43